createdAt,value
2023-09-20T00:00:48.221Z,1.73
2023-09-20T00:03:17.849Z,2.03
2023-09-20T00:05:48.884Z,2.17
2023-09-20T00:08:18.418Z,1.85
2023-09-20T00:10:48.308Z,2.20
2023-09-20T00:13:17.854Z,1.98
2023-09-20T00:15:47.390Z,2.00
2023-09-20T00:18:16.863Z,1.90
2023-09-20T00:20:46.394Z,1.83
2023-09-20T00:23:18.904Z,2.03
2023-09-20T00:25:49.246Z,1.92
2023-09-20T00:28:19.723Z,1.98
2023-09-20T00:30:49.308Z,1.67
2023-09-20T00:33:18.987Z,1.73
2023-09-20T00:35:48.734Z,1.92
2023-09-20T00:38:19.496Z,1.73
2023-09-20T00:40:49.111Z,1.80
2023-09-20T00:43:25.978Z,2.97
2023-09-20T00:45:55.738Z,2.35
2023-09-20T00:48:25.377Z,1.67
2023-09-20T00:50:54.827Z,1.70
2023-09-20T00:53:24.363Z,2.00
2023-09-20T00:55:55.458Z,2.05
2023-09-20T00:58:26.665Z,1.60
2023-09-20T01:00:56.658Z,1.67
2023-09-20T01:03:26.881Z,1.90
2023-09-20T01:05:58.979Z,1.50
2023-09-20T01:08:28.475Z,1.67
2023-09-20T01:10:58.060Z,1.95
2023-09-20T01:13:27.567Z,2.35
2023-09-20T01:15:57.085Z,1.80
2023-09-20T01:18:28.665Z,1.90
2023-09-20T01:20:58.185Z,2.25
2023-09-20T01:23:27.688Z,1.80
2023-09-20T01:25:58.835Z,2.35
2023-09-20T01:28:29.551Z,2.30
2023-09-20T01:31:01.825Z,1.65
2023-09-20T01:33:31.480Z,1.23
2023-09-20T01:36:00.975Z,1.98
2023-09-20T01:38:30.930Z,1.77
2023-09-20T01:41:00.603Z,1.73
2023-09-20T01:43:30.074Z,1.60
2023-09-20T01:45:59.818Z,1.85
2023-09-20T01:48:29.839Z,1.90
2023-09-20T01:50:59.947Z,2.13
2023-09-20T01:53:29.584Z,1.70
2023-09-20T01:56:01.806Z,3.13
2023-09-20T01:58:31.480Z,2.13
2023-09-20T02:01:00.978Z,2.22
2023-09-20T02:03:33.079Z,2.40
2023-09-20T02:06:02.978Z,2.20
2023-09-20T02:08:32.629Z,2.67
2023-09-20T02:11:02.220Z,1.90
2023-09-20T02:13:31.772Z,1.75
2023-09-20T02:16:01.919Z,1.95
2023-09-20T02:18:31.523Z,2.10
2023-09-20T02:21:00.931Z,2.17
2023-09-20T02:23:32.371Z,1.80
2023-09-20T02:26:02.952Z,1.60
2023-09-20T02:28:32.798Z,2.40
2023-09-20T02:31:03.510Z,1.52
2023-09-20T02:33:33.104Z,2.45
2023-09-20T02:36:02.746Z,2.20
2023-09-20T02:38:32.254Z,1.70
2023-09-20T02:41:01.817Z,1.75
2023-09-20T02:43:31.310Z,3.22
2023-09-20T02:46:07.018Z,1.95
2023-09-20T02:48:37.755Z,1.95
2023-09-20T02:51:07.361Z,2.25
2023-09-20T02:53:37.724Z,2.53
2023-09-20T02:56:06.798Z,2.10
2023-09-20T02:58:38.529Z,2.30
2023-09-20T03:03:41.032Z,1.80
2023-09-20T03:06:11.346Z,2.00
2023-09-20T03:08:43.356Z,2.17
2023-09-20T03:11:23.160Z,2.30
2023-09-20T03:13:52.776Z,1.77
2023-09-20T03:16:22.740Z,2.58
2023-09-20T03:18:54.718Z,1.98
2023-09-20T03:21:24.942Z,2.33
2023-09-20T03:23:54.881Z,2.17
2023-09-20T03:26:24.492Z,2.40
2023-09-20T03:28:59.192Z,2.33
2023-09-20T03:31:30.082Z,2.20
2023-09-20T03:34:03.185Z,2.53
2023-09-20T03:36:37.867Z,2.75
2023-09-20T03:39:08.351Z,2.00
2023-09-20T03:41:39.945Z,2.00
2023-09-20T03:44:10.162Z,2.17
2023-09-20T03:46:40.250Z,2.03
2023-09-20T03:49:10.282Z,1.80
2023-09-20T03:51:39.749Z,2.20
2023-09-20T03:54:09.797Z,1.98
2023-09-20T03:56:42.618Z,2.20
2023-09-20T03:59:13.781Z,2.28
2023-09-20T04:01:43.537Z,2.45
2023-09-20T04:04:13.231Z,1.88
2023-09-20T04:06:42.873Z,1.85
2023-09-20T04:09:14.305Z,1.85
2023-09-20T04:11:44.481Z,2.00
2023-09-20T04:14:14.380Z,2.17
2023-09-20T04:16:43.871Z,2.38
2023-09-20T04:19:15.659Z,1.70
2023-09-20T04:21:45.229Z,1.75
2023-09-20T04:24:15.858Z,1.92
2023-09-20T04:26:45.406Z,2.67
2023-09-20T04:29:15.000Z,2.03
2023-09-20T04:31:45.498Z,1.73
2023-09-20T04:34:16.581Z,1.85
2023-09-20T04:36:47.402Z,2.00
2023-09-20T04:39:18.273Z,2.30
2023-09-20T04:41:47.796Z,2.40
2023-09-20T04:44:18.279Z,1.92
2023-09-20T04:46:49.695Z,2.00
2023-09-20T04:49:21.291Z,2.53
2023-09-20T04:51:53.367Z,1.70
2023-09-20T04:54:24.836Z,1.87
2023-09-20T04:56:54.659Z,1.67
2023-09-20T04:59:24.434Z,2.53
2023-09-20T05:01:54.013Z,2.05
2023-09-20T05:04:23.790Z,2.13
2023-09-20T05:06:54.456Z,2.65
2023-09-20T05:09:24.984Z,2.17
2023-09-20T05:11:54.882Z,1.98
2023-09-20T05:14:24.790Z,2.03
2023-09-20T05:16:54.287Z,1.95
2023-09-20T05:19:24.194Z,1.90
2023-09-20T05:21:54.170Z,1.70
2023-09-20T05:24:23.767Z,1.95
2023-09-20T05:26:53.231Z,1.85
2023-09-20T05:29:22.859Z,1.63
2023-09-20T05:31:52.593Z,2.00
2023-09-20T05:34:22.628Z,2.00
2023-09-20T05:36:54.410Z,2.17
2023-09-20T05:39:23.983Z,2.30
2023-09-20T05:41:53.456Z,2.30
2023-09-20T05:44:23.054Z,1.95
2023-09-20T05:46:53.166Z,1.70
2023-09-20T05:49:23.263Z,1.80
2023-09-20T05:51:53.723Z,2.00
2023-09-20T05:54:23.576Z,2.10
2023-09-20T05:56:53.585Z,1.90
2023-09-20T05:59:23.971Z,1.67
2023-09-20T06:01:53.485Z,1.95
2023-09-20T06:04:23.008Z,1.90
2023-09-20T06:06:55.471Z,2.00
2023-09-20T06:09:25.342Z,1.85
2023-09-20T06:11:55.002Z,2.40
2023-09-20T06:14:25.277Z,2.33
2023-09-20T06:16:55.005Z,2.20
2023-09-20T06:19:25.843Z,2.13
2023-09-20T06:21:55.853Z,2.70
2023-09-20T06:24:25.350Z,2.03
2023-09-20T06:26:55.627Z,2.08
2023-09-20T06:29:26.334Z,2.00
2023-09-20T06:31:55.890Z,1.90
2023-09-20T06:34:27.822Z,1.80
2023-09-20T06:36:57.286Z,2.05
2023-09-20T06:39:27.363Z,2.13
2023-09-20T06:41:59.075Z,2.25
2023-09-20T06:44:28.821Z,2.13
2023-09-20T06:46:58.292Z,3.03
2023-09-20T06:49:28.578Z,3.65
2023-09-20T06:51:58.950Z,3.08
2023-09-20T06:54:30.831Z,2.88
2023-09-20T06:59:34.422Z,1.90
2023-09-20T07:02:04.560Z,2.42
2023-09-20T07:04:34.600Z,2.00
2023-09-20T07:07:04.763Z,2.33
2023-09-20T07:09:35.471Z,2.42
2023-09-20T07:12:10.355Z,1.98
2023-09-20T07:14:40.327Z,2.20
2023-09-20T07:17:09.990Z,1.65
2023-09-20T07:19:39.939Z,2.08
2023-09-20T07:22:10.665Z,2.00
2023-09-20T07:24:41.169Z,2.05
2023-09-20T07:27:10.811Z,1.95
2023-09-20T07:29:41.791Z,2.58
2023-09-20T07:32:13.572Z,1.80
2023-09-20T07:34:43.112Z,2.10
2023-09-20T07:37:13.952Z,1.80
2023-09-20T07:39:43.638Z,2.40
2023-09-20T07:42:14.637Z,1.92
2023-09-20T07:44:45.286Z,2.10
2023-09-20T07:47:15.257Z,2.17
2023-09-20T07:49:45.351Z,1.98
2023-09-20T07:52:14.770Z,2.90
2023-09-20T07:54:44.245Z,1.85
2023-09-20T07:57:14.635Z,2.88
2023-09-20T07:59:44.263Z,1.65
2023-09-20T08:02:19.232Z,2.33
2023-09-20T08:04:48.797Z,2.40
2023-09-20T08:07:19.087Z,2.38
2023-09-20T08:09:48.536Z,1.80
2023-09-20T08:12:18.276Z,2.10
2023-09-20T08:14:50.014Z,2.05
2023-09-20T08:17:32.193Z,2.15
2023-09-20T08:20:02.010Z,2.35
2023-09-20T08:22:43.947Z,2.53
2023-09-20T08:25:25.880Z,1.95
2023-09-20T08:28:07.809Z,2.05
2023-09-20T08:31:05.072Z,2.67
2023-09-20T08:33:47.051Z,2.05
2023-09-20T08:36:28.939Z,2.22
2023-09-20T08:39:17.421Z,2.35
2023-09-20T08:42:05.657Z,2.10
2023-09-20T08:44:52.054Z,2.05
2023-09-20T08:47:34.299Z,2.08
2023-09-20T08:50:17.585Z,1.70
2023-09-20T08:53:00.226Z,1.90
2023-09-20T08:55:42.333Z,1.90
2023-09-20T08:58:24.275Z,1.92
2023-09-20T09:00:54.271Z,1.92
2023-09-20T09:03:23.953Z,1.80
2023-09-20T09:05:55.269Z,2.08
2023-09-20T09:08:24.879Z,2.10
2023-09-20T09:10:54.472Z,2.60
2023-09-20T09:13:24.103Z,2.40
2023-09-20T09:15:54.085Z,2.42
2023-09-20T09:18:25.186Z,2.38
2023-09-20T09:20:55.709Z,1.80
2023-09-20T09:23:36.923Z,1.83
2023-09-20T09:26:06.784Z,2.22
2023-09-20T09:28:36.260Z,1.83
2023-09-20T09:31:06.410Z,2.13
2023-09-20T09:33:36.771Z,2.10
2023-09-20T09:36:07.645Z,1.90
2023-09-20T09:38:38.050Z,2.10
2023-09-20T09:41:10.142Z,2.30
2023-09-20T09:46:10.957Z,1.52
2023-09-20T09:48:44.482Z,2.25
2023-09-20T09:51:14.976Z,1.75
2023-09-20T09:53:46.792Z,1.90
2023-09-20T09:56:18.408Z,1.75
2023-09-20T09:58:48.071Z,1.55
2023-09-20T10:01:18.044Z,1.73
2023-09-20T10:03:51.333Z,1.60
2023-09-20T10:06:31.321Z,1.60
2023-09-20T10:09:02.658Z,1.65
2023-09-20T10:11:32.425Z,1.70
2023-09-20T10:14:02.466Z,1.77
2023-09-20T10:16:32.160Z,1.52
2023-09-20T10:19:03.050Z,1.40
2023-09-20T10:21:34.908Z,1.58
2023-09-20T10:24:09.923Z,1.85
2023-09-20T10:26:43.576Z,1.60
2023-09-20T10:29:25.923Z,1.38
2023-09-20T10:31:59.414Z,1.13
2023-09-20T10:34:29.179Z,1.40
2023-09-20T10:36:59.021Z,1.77
2023-09-20T10:39:30.905Z,1.50
2023-09-20T10:42:09.579Z,1.55
2023-09-20T10:44:39.561Z,1.35
2023-09-20T10:47:10.861Z,1.30
2023-09-20T10:49:41.607Z,1.23
2023-09-20T10:52:11.889Z,1.05
2023-09-20T10:54:42.909Z,1.23
2023-09-20T10:57:13.470Z,1.10
2023-09-20T10:59:46.432Z,1.15
2023-09-20T11:02:18.882Z,1.20
2023-09-20T11:04:49.552Z,1.20
2023-09-20T11:07:21.679Z,1.30
2023-09-20T11:12:23.494Z,1.00
2023-09-20T11:14:53.244Z,1.10
2023-09-20T11:17:22.892Z,1.10
2023-09-20T11:19:52.376Z,1.10
2023-09-20T11:22:22.523Z,1.60
2023-09-20T11:24:53.021Z,1.45
2023-09-20T11:27:22.530Z,1.10
2023-09-20T11:29:53.705Z,1.30
2023-09-20T11:32:24.292Z,1.42
2023-09-20T11:34:53.841Z,1.17
2023-09-20T11:37:23.795Z,0.70
2023-09-20T11:39:55.221Z,1.10
2023-09-20T11:42:28.614Z,1.02
2023-09-20T11:45:11.552Z,1.20
2023-09-20T11:47:47.153Z,1.10
2023-09-20T11:50:17.214Z,1.23
2023-09-20T11:52:48.769Z,0.90
2023-09-20T11:55:21.042Z,1.00
2023-09-20T11:57:51.185Z,0.88
2023-09-20T12:00:25.043Z,1.00
2023-09-20T12:02:55.006Z,1.10
2023-09-20T12:05:25.846Z,1.23
2023-09-20T12:07:59.624Z,1.23
2023-09-20T12:10:31.199Z,0.80
2023-09-20T12:13:01.038Z,1.40
2023-09-20T12:15:30.534Z,1.08
2023-09-20T12:18:00.124Z,0.88
2023-09-20T12:20:29.845Z,1.00
2023-09-20T12:23:03.515Z,1.10
2023-09-20T12:25:33.823Z,1.15
2023-09-20T12:28:05.464Z,1.42
2023-09-20T12:30:35.033Z,1.20
2023-09-20T12:33:06.063Z,1.40
2023-09-20T12:35:35.895Z,0.88
2023-09-20T12:38:05.322Z,1.10
2023-09-20T12:40:34.857Z,1.27
2023-09-20T12:43:05.297Z,1.48
2023-09-20T12:45:34.771Z,0.90
2023-09-20T12:48:04.294Z,1.00
2023-09-20T12:50:37.857Z,1.42
2023-09-20T12:53:11.060Z,0.90
2023-09-20T12:55:41.454Z,1.25
2023-09-20T12:58:11.895Z,1.20
2023-09-20T13:00:47.100Z,1.45
2023-09-20T13:03:19.971Z,1.50
2023-09-20T13:05:49.670Z,1.30
2023-09-20T13:08:20.782Z,1.20
2023-09-20T13:10:54.760Z,1.27
2023-09-20T13:13:28.585Z,0.95
2023-09-20T13:15:58.299Z,1.05
2023-09-20T13:18:28.104Z,1.48
2023-09-20T13:20:58.383Z,1.15
2023-09-20T13:23:28.337Z,0.80
2023-09-20T13:25:57.899Z,1.35
2023-09-20T13:28:27.571Z,1.05
2023-09-20T13:30:57.062Z,0.93
2023-09-20T13:33:27.208Z,1.77
2023-09-20T13:35:57.585Z,0.73
2023-09-20T13:38:27.380Z,1.13
2023-09-20T13:40:57.282Z,1.30
2023-09-20T13:43:26.737Z,1.38
2023-09-20T13:45:56.279Z,1.52
2023-09-20T13:48:25.884Z,1.25
2023-09-20T13:50:55.640Z,1.10
2023-09-20T13:53:25.994Z,1.35
2023-09-20T13:56:03.832Z,1.10
2023-09-20T13:58:35.076Z,1.50
2023-09-20T14:01:06.911Z,1.50
2023-09-20T14:03:38.589Z,1.15
2023-09-20T14:06:09.096Z,1.30
2023-09-20T14:08:38.605Z,1.15
2023-09-20T14:11:08.803Z,1.40
2023-09-20T14:13:39.424Z,1.20
2023-09-20T14:16:09.101Z,1.20
2023-09-20T14:18:38.672Z,1.33
2023-09-20T14:21:09.375Z,1.20
2023-09-20T14:23:39.666Z,0.93
2023-09-20T14:26:13.377Z,1.27
2023-09-20T14:28:44.016Z,1.40
2023-09-20T14:31:20.397Z,1.30
2023-09-20T14:33:50.052Z,1.33
2023-09-20T14:36:20.400Z,1.05
2023-09-20T14:38:50.058Z,1.15
2023-09-20T14:41:19.829Z,1.40
2023-09-20T14:43:49.271Z,1.25
2023-09-20T14:46:18.930Z,1.48
2023-09-20T14:48:48.539Z,0.95
2023-09-20T14:51:21.240Z,1.00
2023-09-20T14:53:51.828Z,1.40
2023-09-20T14:56:21.672Z,1.20
2023-09-20T14:58:51.542Z,1.10
2023-09-20T15:01:21.945Z,0.93
2023-09-20T15:03:51.671Z,1.52
2023-09-20T15:06:21.525Z,1.33
2023-09-20T15:08:51.086Z,1.10
2023-09-20T15:11:20.676Z,1.05
2023-09-20T15:13:51.178Z,1.48
2023-09-20T15:16:20.678Z,1.48
2023-09-20T15:18:51.208Z,1.30
2023-09-20T15:21:22.032Z,1.70
2023-09-20T15:23:53.344Z,1.40
2023-09-20T15:26:25.840Z,1.58
2023-09-20T15:29:05.375Z,1.13
2023-09-20T15:31:34.931Z,1.33
2023-09-20T15:34:05.226Z,1.55
2023-09-20T15:36:34.819Z,1.30
2023-09-20T15:39:04.286Z,1.70
2023-09-20T15:41:33.730Z,1.55
2023-09-20T15:44:05.813Z,1.60
2023-09-20T15:49:04.715Z,1.20
2023-09-20T15:51:34.555Z,2.22
2023-09-20T15:54:04.057Z,1.20
2023-09-20T15:56:33.572Z,1.23
2023-09-20T15:59:03.055Z,1.73
2023-09-20T16:01:32.870Z,2.17
2023-09-20T16:04:04.453Z,1.73
2023-09-20T16:06:34.120Z,2.38
2023-09-20T16:09:03.864Z,1.75
2023-09-20T16:11:34.345Z,1.70
2023-09-20T16:14:04.179Z,1.42
2023-09-20T16:16:34.623Z,1.50
2023-09-20T16:19:04.732Z,1.30
2023-09-20T16:21:34.535Z,1.40
2023-09-20T16:24:04.022Z,1.80
2023-09-20T16:26:34.280Z,2.25
2023-09-20T16:29:03.849Z,1.67
2023-09-20T16:31:33.989Z,1.50
2023-09-20T16:34:03.590Z,1.80
2023-09-20T16:36:33.078Z,1.83
2023-09-20T16:39:02.569Z,1.77
2023-09-20T16:41:32.816Z,2.22
2023-09-20T16:44:02.385Z,1.85
2023-09-20T16:46:31.849Z,1.60
2023-09-20T16:49:01.310Z,1.65
2023-09-20T16:51:30.773Z,1.90
2023-09-20T16:54:00.291Z,1.50
2023-09-20T16:56:30.292Z,1.70
2023-09-20T16:58:59.774Z,1.50
2023-09-20T17:01:29.712Z,1.80
2023-09-20T17:03:59.351Z,1.73
2023-09-20T17:06:28.944Z,1.50
2023-09-20T17:08:58.947Z,1.77
2023-09-20T17:11:28.996Z,1.58
2023-09-20T17:13:58.849Z,1.70
2023-09-20T17:16:28.303Z,2.10
2023-09-20T17:19:00.567Z,1.80
2023-09-20T17:21:30.266Z,1.55
2023-09-20T17:24:01.134Z,1.70
2023-09-20T17:26:31.135Z,1.60
2023-09-20T17:29:00.903Z,1.77
2023-09-20T17:31:30.686Z,2.00
2023-09-20T17:34:00.360Z,1.70
2023-09-20T17:36:30.095Z,1.83
2023-09-20T17:39:01.515Z,1.85
2023-09-20T17:41:31.996Z,2.17
2023-09-20T17:44:02.276Z,1.73
2023-09-20T17:46:32.319Z,1.80
2023-09-20T17:49:02.139Z,1.98
2023-09-20T17:51:31.604Z,2.00
2023-09-20T17:54:01.349Z,1.77
2023-09-20T17:56:31.847Z,1.80
2023-09-20T17:59:02.260Z,1.73
2023-09-20T18:01:33.007Z,1.60
2023-09-20T18:04:04.279Z,1.63
2023-09-20T18:06:33.842Z,1.75
2023-09-20T18:09:04.098Z,1.63
2023-09-20T18:11:33.632Z,1.88
2023-09-20T18:14:05.388Z,2.00
2023-09-20T18:16:34.872Z,1.98
2023-09-20T18:19:06.098Z,2.05
2023-09-20T18:21:36.370Z,2.73
2023-09-20T18:24:07.014Z,2.05
2023-09-20T18:26:37.251Z,1.73
2023-09-20T18:29:07.663Z,1.75
2023-09-20T18:31:38.309Z,2.20
2023-09-20T18:34:09.526Z,1.77
2023-09-20T18:36:39.002Z,2.33
2023-09-20T18:39:13.853Z,1.90
2023-09-20T18:41:43.659Z,2.10
2023-09-20T18:44:13.196Z,1.98
2023-09-20T18:46:43.079Z,2.00
2023-09-20T18:49:14.939Z,1.73
2023-09-20T18:51:45.382Z,1.70
2023-09-20T18:54:15.863Z,2.05
2023-09-20T18:56:45.942Z,1.67
2023-09-20T18:59:19.960Z,2.00
2023-09-20T19:01:49.743Z,2.20
2023-09-20T19:04:20.932Z,3.92
2023-09-20T19:06:53.351Z,2.37
2023-09-20T19:09:25.400Z,1.73
2023-09-20T19:11:55.001Z,1.58
2023-09-20T19:14:24.522Z,2.00
2023-09-20T19:16:54.575Z,2.25
2023-09-20T19:19:24.832Z,1.80
2023-09-20T19:21:54.299Z,1.95
2023-09-20T19:24:25.381Z,1.75
2023-09-20T19:26:55.044Z,2.50
2023-09-20T19:29:28.603Z,1.98
2023-09-20T19:31:58.320Z,2.30
2023-09-20T19:34:27.849Z,1.85
2023-09-20T19:36:57.369Z,1.80
2023-09-20T19:39:26.852Z,2.08
2023-09-20T19:41:56.895Z,1.73
2023-09-20T19:44:27.656Z,1.58
2023-09-20T19:46:57.253Z,1.75
2023-09-20T19:49:26.833Z,1.85
2023-09-20T19:51:56.561Z,2.10
2023-09-20T19:54:26.332Z,2.05
2023-09-20T19:56:55.929Z,1.90
2023-09-20T19:59:29.914Z,1.70
2023-09-20T20:02:00.183Z,1.88
2023-09-20T20:04:30.033Z,1.98
2023-09-20T20:07:03.641Z,1.92
2023-09-20T20:09:40.173Z,1.80
2023-09-20T20:12:09.655Z,2.05
2023-09-20T20:14:41.083Z,1.55
2023-09-20T20:17:13.145Z,1.77
2023-09-20T20:19:42.879Z,1.67
2023-09-20T20:22:12.968Z,1.50
2023-09-20T20:24:42.549Z,1.90
2023-09-20T20:27:13.784Z,1.67
2023-09-20T20:29:43.486Z,1.95
2023-09-20T20:32:14.903Z,1.48
2023-09-20T20:34:44.364Z,2.10
2023-09-20T20:37:13.803Z,1.60
2023-09-20T20:39:43.262Z,1.83
2023-09-20T20:42:13.118Z,1.48
2023-09-20T20:44:42.777Z,1.65
2023-09-20T20:47:12.309Z,1.58
2023-09-20T20:49:42.770Z,2.13
2023-09-20T20:52:12.218Z,1.67
2023-09-20T20:54:42.980Z,1.50
2023-09-20T20:57:12.930Z,1.65
2023-09-20T20:59:42.663Z,2.00
2023-09-20T21:02:14.619Z,1.70
2023-09-20T21:04:44.759Z,2.03
2023-09-20T21:07:15.001Z,1.60
2023-09-20T21:09:44.549Z,2.20
2023-09-20T21:12:14.094Z,1.73
2023-09-20T21:14:43.638Z,1.70
2023-09-20T21:17:13.123Z,1.77
2023-09-20T21:19:42.696Z,1.60
2023-09-20T21:22:15.018Z,1.90
2023-09-20T21:27:14.291Z,1.50
2023-09-20T21:29:43.856Z,1.60
2023-09-20T21:32:13.918Z,1.67
2023-09-20T21:34:43.783Z,1.50
2023-09-20T21:37:13.246Z,1.80
2023-09-20T21:39:42.724Z,1.52
2023-09-20T21:42:12.298Z,1.73
2023-09-20T21:44:42.046Z,1.70
2023-09-20T21:47:12.461Z,1.40
2023-09-20T21:49:41.979Z,2.05
2023-09-20T21:52:14.306Z,1.73
2023-09-20T21:54:44.596Z,1.77
2023-09-20T21:57:14.208Z,2.00
2023-09-20T21:59:43.902Z,1.77
2023-09-20T22:02:15.764Z,1.90
2023-09-20T22:04:45.400Z,1.95
2023-09-20T22:07:15.332Z,2.05
2023-09-20T22:09:46.456Z,1.95
2023-09-20T22:12:16.317Z,1.85
2023-09-20T22:14:47.118Z,2.05
2023-09-20T22:17:20.543Z,2.40
2023-09-20T22:19:50.175Z,1.92
2023-09-20T22:22:20.075Z,2.03
2023-09-20T22:24:49.560Z,1.70
2023-09-20T22:27:19.041Z,2.00
2023-09-20T22:29:48.656Z,2.00
2023-09-20T22:32:19.199Z,1.73
2023-09-20T22:34:48.988Z,1.80
2023-09-20T22:37:18.556Z,1.63
2023-09-20T22:39:48.126Z,2.22
2023-09-20T22:42:18.685Z,1.85
2023-09-20T22:44:48.236Z,1.50
2023-09-20T22:47:19.534Z,1.70
2023-09-20T22:49:51.951Z,1.90
2023-09-20T22:52:23.910Z,1.75
2023-09-20T22:54:54.339Z,2.10
2023-09-20T22:57:26.250Z,2.30
2023-09-20T22:59:55.840Z,1.95
2023-09-20T23:02:25.503Z,1.70
2023-09-20T23:04:57.418Z,2.47
2023-09-20T23:07:27.576Z,1.95
2023-09-20T23:09:57.061Z,1.83
2023-09-20T23:12:26.572Z,1.80
2023-09-20T23:14:56.227Z,1.60
2023-09-20T23:17:25.766Z,1.58
2023-09-20T23:20:01.415Z,1.70
2023-09-20T23:22:31.008Z,2.03
2023-09-20T23:25:00.799Z,1.80
2023-09-20T23:27:31.337Z,1.88
2023-09-20T23:30:00.816Z,1.90
2023-09-20T23:32:31.467Z,1.60
2023-09-20T23:35:01.511Z,2.10
2023-09-20T23:37:31.179Z,1.83
2023-09-20T23:40:00.963Z,1.70
2023-09-20T23:42:31.864Z,2.38
2023-09-20T23:45:01.398Z,1.50
2023-09-20T23:47:32.465Z,2.50
2023-09-20T23:50:03.814Z,1.60
2023-09-20T23:52:33.939Z,1.60
2023-09-20T23:55:06.987Z,1.67
2023-09-20T23:57:38.394Z,1.85
